Pagrindinis puslapis
METAR-TAF:

METAR-TAF

Oro uostai :

Veliko Tirnovas, Bulgarija

platuma: 43-09N, ilguma: 025-36E, Aukštis: 87 m

Dabartinis oras

Ataskaita buvo paskelbta 32 minutes, ne 08:30 UTC
Vėjas 2 kt nuo kintamojo kryptimis
Temperatūra 18°C
Drėgmė 59%
Slėgis 1019 hPa
Matomumas 10 km arba daugiau

METAR: LBGO 180830Z AUTO VRB02KT 9999 NCD 18/10 Q1019 NOSIG

Laikas: 12:02 (09:02 UTC)

Prognozė

Ataskaita buvo paskelbta 4 valandos ir 2 minutes, ne 05:00 UTC
Prognozė galioja nuo 18 metu 06 UTC su 19 metu 06 UTC
Vėjas 4 kt nuo kintamojo kryptimis
Matomumas 10 km arba daugiau
nėra debesų žemiau 1500 m ir nėra kamuolinių lietaus debesų
Laikinai
nuo 18 metu 06 UTC su 19 metu 07 UTC
Matomumas: 1500 m
Mažai debesys ne aukštis 1000 ft
Sekli rūkas
Laikinai
nuo 19 metu 02 UTC su 19 metu 06 UTC
Matomumas: 3000 m
Išsisklaidę debesys ne aukštis 1500 ft
rūkana

TAF: LBGO 180500Z 1806/1906 VRB04KT CAVOK TEMPO 1806/1907 1500 MIFG FEW010 TEMPO 1902/1906 3000 BR SCT015

Orai ataskaitas ir orų prognozės (METAR, TAF).

turimą stotys yra geltonos ir raudonos taškus žemėlapyje.

Perkelti pele per norėdami pamatyti stoties vardą.

Tada spustelėkite, norėdami matyti oro stebėjimo ir prognozės.

Norėdami pakeisti žemėlapį: spustelėkite ant žalios mygtukų su juodo kryžiaus žemyn,; žalią mygtuką su brūkšneliu, jei norite nutolinti; arba žalių rodyklių gretimoms žemėlapius.


METAR-TAF: